createdAt,value
2024-03-12T00:04:22.063Z,78.57
2024-03-12T00:10:16.832Z,78.50
2024-03-12T00:15:29.025Z,78.58
2024-03-12T00:28:16.444Z,78.69
2024-03-12T00:35:27.844Z,78.83
2024-03-12T00:42:32.462Z,78.84
2024-03-12T00:48:21.514Z,78.92
2024-03-12T00:53:32.958Z,78.86
2024-03-12T00:58:41.612Z,78.99
2024-03-12T01:03:49.561Z,79.04
2024-03-12T01:09:04.457Z,79.09
2024-03-12T01:14:13.916Z,79.13
2024-03-12T01:19:25.633Z,79.34
2024-03-12T01:24:33.140Z,79.20
2024-03-12T01:29:40.752Z,79.24
2024-03-12T01:34:48.312Z,79.51
2024-03-12T01:39:56.304Z,79.54
2024-03-12T01:45:07.086Z,79.40
2024-03-12T01:50:18.431Z,79.61
2024-03-12T01:55:28.269Z,79.60
2024-03-12T02:00:39.450Z,79.47
2024-03-12T02:05:47.901Z,79.62
2024-03-12T02:10:55.524Z,79.68
2024-03-12T02:16:03.255Z,79.80
2024-03-12T02:21:10.803Z,79.69
2024-03-12T02:26:18.144Z,79.80
2024-03-12T02:31:25.410Z,79.79
2024-03-12T02:36:32.862Z,79.73
2024-03-12T02:41:41.626Z,79.95
2024-03-12T02:46:51.021Z,79.92
2024-03-12T02:51:59.060Z,79.83
2024-03-12T02:57:07.029Z,79.95
2024-03-12T03:02:15.270Z,80.08
2024-03-12T03:07:22.464Z,80.17
2024-03-12T03:12:30.025Z,80.21
2024-03-12T03:17:37.949Z,80.16
2024-03-12T03:22:46.375Z,80.23
2024-03-12T03:27:54.583Z,80.28
2024-03-12T03:33:00.868Z,80.44
2024-03-12T03:38:10.254Z,80.45
2024-03-12T03:43:17.766Z,80.36
2024-03-12T03:48:25.480Z,80.42
2024-03-12T03:53:34.173Z,80.41
2024-03-12T03:58:44.714Z,80.62
2024-03-12T04:03:53.219Z,80.69
2024-03-12T04:09:00.884Z,80.75
2024-03-12T04:14:10.828Z,80.63
2024-03-12T04:19:18.255Z,80.73
2024-03-12T04:24:27.221Z,80.85
2024-03-12T04:29:34.894Z,80.79
2024-03-12T04:34:42.576Z,80.85
2024-03-12T04:39:50.693Z,80.86
2024-03-12T04:44:57.545Z,80.91
2024-03-12T04:50:05.849Z,81.04
2024-03-12T04:55:18.833Z,81.05
2024-03-12T05:00:32.678Z,81.07
2024-03-12T05:05:41.917Z,81.08
2024-03-12T05:11:02.627Z,81.01
2024-03-12T05:16:11.232Z,81.10
2024-03-12T05:21:19.259Z,81.26
2024-03-12T05:26:27.665Z,81.26
2024-03-12T05:32:19.348Z,81.22
2024-03-12T05:37:40.974Z,81.40
2024-03-12T05:43:10.534Z,81.41
2024-03-12T05:48:18.843Z,81.30
2024-03-12T05:53:26.474Z,81.40
2024-03-12T05:58:33.839Z,81.56
2024-03-12T06:03:44.244Z,81.61
2024-03-12T06:08:52.028Z,81.58
2024-03-12T06:14:04.354Z,81.62
2024-03-12T06:19:15.254Z,81.62
2024-03-12T06:24:23.283Z,81.48
2024-03-12T06:29:59.605Z,81.62
2024-03-12T06:35:09.288Z,81.78
2024-03-12T06:40:20.270Z,81.88
2024-03-12T06:45:30.307Z,81.82
2024-03-12T06:50:40.697Z,81.95
2024-03-12T06:55:48.964Z,81.81
2024-03-12T07:00:57.365Z,81.98
2024-03-12T07:06:19.610Z,81.83
2024-03-12T07:12:20.315Z,81.84
2024-03-12T07:17:32.868Z,81.79
2024-03-12T07:22:46.468Z,81.87
2024-03-12T07:27:56.769Z,81.98
2024-03-12T07:33:05.416Z,81.96
2024-03-12T07:38:30.895Z,82.04
2024-03-12T07:43:59.400Z,82.09
2024-03-12T07:49:12.378Z,82.01
2024-03-12T07:54:22.073Z,82.02
2024-03-12T07:59:31.349Z,81.96
2024-03-12T08:04:39.409Z,81.98
2024-03-12T08:09:45.412Z,82.14
2024-03-12T08:14:52.784Z,82.14
2024-03-12T08:20:00.598Z,82.25
2024-03-12T08:25:12.795Z,82.23
2024-03-12T08:30:20.968Z,82.32
2024-03-12T08:35:29.773Z,82.49
2024-03-12T08:40:39.764Z,82.33
2024-03-12T08:45:49.178Z,82.34
2024-03-12T08:50:57.714Z,82.35
2024-03-12T08:56:07.269Z,82.25
2024-03-12T09:01:14.816Z,82.20
2024-03-12T09:06:22.842Z,82.16
2024-03-12T09:11:30.250Z,82.21
2024-03-12T09:16:38.830Z,82.27
2024-03-12T09:21:46.329Z,82.20
2024-03-12T09:26:55.151Z,82.30
2024-03-12T09:32:05.382Z,82.19
2024-03-12T09:37:12.726Z,82.22
2024-03-12T09:42:21.522Z,82.33
2024-03-12T09:47:28.939Z,82.20
2024-03-12T09:52:36.714Z,82.08
2024-03-12T09:57:46.285Z,82.09
2024-03-12T10:02:53.833Z,82.18
2024-03-12T10:08:16.795Z,82.17
2024-03-12T10:13:24.795Z,82.23
2024-03-12T10:18:31.202Z,82.26
2024-03-12T10:23:41.606Z,82.37
2024-03-12T10:28:52.410Z,82.23
2024-03-12T10:34:11.629Z,82.23
2024-03-12T10:39:30.146Z,82.22
2024-03-12T10:44:40.473Z,82.13
2024-03-12T10:49:49.980Z,82.29
2024-03-12T10:55:05.745Z,82.25
2024-03-12T11:00:22.205Z,82.27
2024-03-12T11:05:30.936Z,82.32
2024-03-12T11:10:39.147Z,82.41
2024-03-12T11:15:46.931Z,82.27
2024-03-12T11:20:54.902Z,82.12
2024-03-12T11:26:05.736Z,82.14
2024-03-12T11:31:15.809Z,82.17
2024-03-12T11:36:35.972Z,82.04
2024-03-12T11:42:20.482Z,82.25
2024-03-12T11:47:36.091Z,82.19
2024-03-12T11:52:46.364Z,82.35
2024-03-12T11:57:54.743Z,82.41
2024-03-12T12:03:03.215Z,82.32
2024-03-12T12:08:12.155Z,82.17
2024-03-12T12:13:22.516Z,82.03
2024-03-12T12:18:29.842Z,82.14
2024-03-12T12:23:38.887Z,82.16
2024-03-12T12:28:50.132Z,81.94
2024-03-12T12:34:00.317Z,81.84
2024-03-12T12:39:12.469Z,81.94
2024-03-12T12:44:50.249Z,81.96
2024-03-12T12:55:29.459Z,81.83
2024-03-12T13:01:41.129Z,81.83
2024-03-12T13:07:02.334Z,81.72
2024-03-12T13:12:43.825Z,81.65
2024-03-12T13:17:54.068Z,81.62
2024-03-12T13:23:01.592Z,81.50
2024-03-12T13:28:09.972Z,81.53
2024-03-12T13:33:19.906Z,81.55
2024-03-12T13:38:28.500Z,81.55
2024-03-12T13:43:36.565Z,81.71
2024-03-12T13:48:45.551Z,81.74
2024-03-12T13:53:54.701Z,81.74
2024-03-12T13:59:03.322Z,81.51
2024-03-12T14:04:12.976Z,81.60
2024-03-12T14:09:43.371Z,81.60
2024-03-12T14:15:03.098Z,81.48
2024-03-12T14:20:16.114Z,81.47
2024-03-12T14:31:15.660Z,81.56
2024-03-12T14:36:23.357Z,81.56
2024-03-12T14:41:33.821Z,81.64
2024-03-12T14:46:43.435Z,81.62
2024-03-12T14:51:52.666Z,81.45
2024-03-12T14:57:05.020Z,81.55
2024-03-12T15:02:14.295Z,81.67
2024-03-12T15:07:21.704Z,81.67
2024-03-12T15:12:31.251Z,81.56
2024-03-12T15:17:40.746Z,81.60
2024-03-12T15:22:50.578Z,81.67
2024-03-12T15:27:59.360Z,81.71
2024-03-12T15:33:08.174Z,81.74
2024-03-12T15:38:15.658Z,81.60
2024-03-12T15:43:23.461Z,81.52
2024-03-12T15:48:33.010Z,81.47
2024-03-12T15:53:43.663Z,81.52
2024-03-12T15:58:52.708Z,81.62
2024-03-12T16:04:00.880Z,81.54
2024-03-12T16:09:10.916Z,81.61
2024-03-12T16:14:18.300Z,81.51
2024-03-12T16:19:31.391Z,81.82
2024-03-12T16:24:38.992Z,81.40
2024-03-12T16:29:48.354Z,81.43
2024-03-12T16:34:58.106Z,81.54
2024-03-12T16:40:06.993Z,81.56
2024-03-12T16:45:14.800Z,81.68
2024-03-12T16:50:22.441Z,81.58
2024-03-12T16:55:33.708Z,81.64
2024-03-12T17:00:45.374Z,81.61
2024-03-12T17:05:56.602Z,81.80
2024-03-12T17:11:05.126Z,81.71
2024-03-12T17:16:34.211Z,81.73
2024-03-12T17:21:43.776Z,81.67
2024-03-12T17:26:51.864Z,81.71
2024-03-12T17:31:59.776Z,81.58
2024-03-12T17:37:11.762Z,81.70
2024-03-12T17:42:22.076Z,81.70
2024-03-12T17:47:34.651Z,81.67
2024-03-12T17:52:43.799Z,81.76
2024-03-12T17:57:54.189Z,81.70
2024-03-12T18:03:11.346Z,81.67
2024-03-12T18:08:25.694Z,81.79
2024-03-12T18:13:34.306Z,81.68
2024-03-12T18:18:41.671Z,81.69
2024-03-12T18:23:51.523Z,81.82
2024-03-12T18:28:59.984Z,81.61
2024-03-12T18:34:09.314Z,81.50
2024-03-12T18:39:19.433Z,81.62
2024-03-12T18:44:28.197Z,81.62
2024-03-12T18:49:36.271Z,81.66
2024-03-12T18:54:42.318Z,81.50
2024-03-12T18:59:50.177Z,81.47
2024-03-12T19:05:07.224Z,81.63
2024-03-12T19:10:16.290Z,81.69
2024-03-12T19:15:26.706Z,81.67
2024-03-12T19:20:36.244Z,81.46
2024-03-12T19:25:43.572Z,81.56
2024-03-12T19:30:52.304Z,81.71
2024-03-12T19:36:02.357Z,81.83
2024-03-12T19:41:13.769Z,81.96
2024-03-12T19:46:24.185Z,81.78
2024-03-12T19:51:33.752Z,81.72
2024-03-12T19:56:42.668Z,81.67
2024-03-12T20:01:55.895Z,81.87
2024-03-12T20:07:03.910Z,81.77
2024-03-12T20:12:12.827Z,81.96
2024-03-12T20:17:21.521Z,81.92
2024-03-12T20:22:30.656Z,82.05
2024-03-12T20:27:39.560Z,82.09
2024-03-12T20:32:47.216Z,82.03
2024-03-12T20:37:55.659Z,82.05
2024-03-12T20:43:03.966Z,82.08
2024-03-12T20:48:12.187Z,82.18
2024-03-12T20:53:21.548Z,82.14
2024-03-12T20:58:29.768Z,82.15
2024-03-12T21:03:39.123Z,82.07
2024-03-12T21:08:48.993Z,82.26
2024-03-12T21:13:56.690Z,82.20
2024-03-12T21:19:04.557Z,82.11
2024-03-12T21:24:10.705Z,82.10
2024-03-12T21:29:18.178Z,82.18
2024-03-12T21:34:25.421Z,82.20
2024-03-12T21:39:32.706Z,82.26
2024-03-12T21:44:42.793Z,82.07
2024-03-12T21:49:50.073Z,82.11
2024-03-12T21:54:57.327Z,82.05
2024-03-12T22:00:11.950Z,82.20
2024-03-12T22:05:21.717Z,82.11
2024-03-12T22:10:30.975Z,82.16
2024-03-12T22:15:38.423Z,82.24
2024-03-12T22:20:47.561Z,82.10
2024-03-12T22:25:55.100Z,81.98
2024-03-12T22:31:02.514Z,81.98
2024-03-12T22:36:12.334Z,81.86
2024-03-12T22:41:25.373Z,81.81
2024-03-12T22:46:33.353Z,81.92
2024-03-12T22:51:42.458Z,81.84
2024-03-12T22:56:50.535Z,81.74
2024-03-12T23:01:57.718Z,81.79
2024-03-12T23:07:05.916Z,81.93
2024-03-12T23:12:11.704Z,82.02
2024-03-12T23:17:18.835Z,81.92
2024-03-12T23:22:28.778Z,82.00
2024-03-12T23:27:38.900Z,82.05
2024-03-12T23:32:46.582Z,82.17
2024-03-12T23:37:54.103Z,82.14
2024-03-12T23:43:02.057Z,82.23
2024-03-12T23:48:10.292Z,82.21
2024-03-12T23:53:17.842Z,82.35
2024-03-12T23:58:25.247Z,82.27
